Time;durP1;ratioP1;P1;durP2;ratioP2;P2;SDS_P1;SDS_P2;PMS_P1;PMS_P2;Temp;Humidity;BMP_temperature;BMP_pressure;BME280_temperature;BME280_humidity;BME280_pressure;Samples;Min_cycle;Max_cycle;Signal;HPM_P1;HPM_P2
2023/06/17 00:01:14;;;;;;;8.10;4.57;;;;;;;19.28;37.26;101587.97;4957599;28;112987;-62
2023/06/17 00:03:43;;;;;;;6.15;4.75;;;;;;;19.22;37.63;101584.72;4989314;28;124646;-61
2023/06/17 00:06:10;;;;;;;6.53;5.07;;;;;;;19.20;37.50;101591.19;4988957;28;123732;-61
2023/06/17 00:08:37;;;;;;;6.55;4.97;;;;;;;19.16;37.86;101590.53;4974033;28;115620;-61
2023/06/17 00:11:05;;;;;;;7.63;5.10;;;;;;;19.14;37.95;101592.47;4978935;28;114228;-61
2023/06/17 00:13:33;;;;;;;7.95;5.43;;;;;;;19.12;38.00;101588.16;4988562;28;123998;-63
2023/06/17 00:16:04;;;;;;;7.43;4.78;;;;;;;19.07;37.87;101596.53;4988502;28;124126;-61
2023/06/17 00:18:32;;;;;;;9.30;5.20;;;;;;;19.04;38.10;101599.41;4971129;28;114277;-61
2023/06/17 00:20:59;;;;;;;6.38;5.05;;;;;;;18.98;38.05;101592.66;4984931;28;114245;-61
2023/06/17 00:23:28;;;;;;;7.40;5.20;;;;;;;18.93;38.22;101583.19;4970269;28;124387;-61
2023/06/17 00:25:55;;;;;;;7.43;5.10;;;;;;;18.89;38.40;101592.44;4986473;28;124530;-60
2023/06/17 00:28:22;;;;;;;7.80;5.07;;;;;;;18.84;38.44;101577.50;4970965;28;114710;-60
2023/06/17 00:30:51;;;;;;;5.38;4.63;;;;;;;18.79;38.80;101576.91;4971248;28;114189;-60
2023/06/17 00:33:18;;;;;;;8.73;5.50;;;;;;;18.77;38.78;101580.69;4973198;28;122971;-60
2023/06/17 00:35:46;;;;;;;8.32;5.40;;;;;;;18.72;38.57;101575.59;4987497;28;124058;-60
2023/06/17 00:38:13;;;;;;;8.75;5.28;;;;;;;18.68;38.95;101576.78;4958338;28;113385;-60
2023/06/17 00:40:40;;;;;;;8.60;5.57;;;;;;;18.66;38.81;101570.66;4973520;28;114930;-60
2023/06/17 00:43:08;;;;;;;7.32;5.15;;;;;;;18.64;38.96;101572.59;4972624;28;123880;-60
2023/06/17 00:45:38;;;;;;;7.00;5.40;;;;;;;18.59;38.97;101569.34;4967599;28;123430;-60
2023/06/17 00:48:10;;;;;;;6.03;5.25;;;;;;;18.57;39.28;101568.59;4973216;28;113581;-60
2023/06/17 00:50:39;;;;;;;8.15;5.32;;;;;;;18.55;39.19;101562.47;4953671;28;113108;-60
2023/06/17 00:53:07;;;;;;;7.90;5.57;;;;;;;18.52;39.31;101562.69;4976088;28;124025;-60
2023/06/17 00:55:34;;;;;;;7.95;5.28;;;;;;;18.49;39.25;101561.91;4972519;28;123056;-61
2023/06/17 00:58:02;;;;;;;8.90;5.50;;;;;;;18.47;39.16;101561.16;4984926;28;113415;-60
2023/06/17 01:00:29;;;;;;;6.78;5.18;;;;;;;18.45;39.11;101567.59;4972720;28;113741;-60
2023/06/17 01:02:58;;;;;;;10.35;5.47;;;;;;;18.40;39.47;101570.59;4987505;28;124402;-60
2023/06/17 01:05:27;;;;;;;7.28;4.72;;;;;;;18.38;39.43;101567.13;4971356;28;123650;-61
2023/06/17 01:08:14;;;;;;;7.40;5.53;;;;;;;18.33;39.46;101569.28;4987717;28;115157;-60
2023/06/17 01:10:57;;;;;;;6.20;4.68;;;;;;;18.28;39.43;101564.22;4995052;28;113993;-60
2023/06/17 01:13:28;;;;;;;11.05;5.22;;;;;;;18.24;39.65;101565.38;4991630;28;124978;-60
2023/06/17 01:15:57;;;;;;;7.93;5.25;;;;;;;18.21;39.89;101554.00;4956305;28;124259;-60
2023/06/17 01:18:25;;;;;;;7.38;5.32;;;;;;;18.17;39.89;101557.84;4972079;28;113356;-60
2023/06/17 01:20:54;;;;;;;8.82;5.50;;;;;;;18.13;40.02;101562.53;4971812;28;113775;-60
2023/06/17 01:23:32;;;;;;;7.55;5.35;;;;;;;18.08;40.40;101560.19;4971554;28;123237;-60
2023/06/17 01:26:01;;;;;;;9.02;5.90;;;;;;;18.06;40.10;101556.75;4974420;28;123997;-60
2023/06/17 01:28:30;;;;;;;7.63;5.63;;;;;;;18.04;40.08;101557.78;4980578;28;115310;-61
2023/06/17 01:30:57;;;;;;;7.60;5.75;;;;;;;18.00;40.35;101557.13;4997459;28;114846;-61
2023/06/17 01:33:25;;;;;;;7.55;5.32;;;;;;;17.97;40.53;101562.69;4987319;28;124283;-60
2023/06/17 01:36:04;;;;;;;7.93;6.05;;;;;;;17.94;40.58;101552.16;4996812;28;124280;-60
2023/06/17 01:38:41;;;;;;;8.65;5.75;;;;;;;17.89;40.57;101562.31;4984488;28;114649;-60
2023/06/17 01:41:14;;;;;;;8.80;5.82;;;;;;;17.85;40.59;101558.13;4988368;28;114279;-60
2023/06/17 01:43:44;;;;;;;8.25;5.85;;;;;;;17.80;40.63;101561.06;4952900;28;123769;-60
2023/06/17 01:46:15;;;;;;;10.05;6.03;;;;;;;17.78;40.66;101562.09;4987595;28;124585;-61
2023/06/17 01:48:43;;;;;;;10.57;5.97;;;;;;;17.75;41.01;101554.28;5002854;28;114207;-61
2023/06/17 01:51:10;;;;;;;10.63;6.72;;;;;;;17.73;40.78;101558.88;4974470;28;114227;-61
2023/06/17 01:53:37;;;;;;;8.43;6.13;;;;;;;17.70;40.97;101560.78;4972997;28;123043;-61
2023/06/17 01:56:05;;;;;;;8.00;5.80;;;;;;;17.68;41.09;101559.16;4971588;28;124641;-60
2023/06/17 01:58:32;;;;;;;9.07;5.85;;;;;;;17.66;41.20;101558.41;4988583;28;114039;-60
2023/06/17 02:00:59;;;;;;;11.80;6.35;;;;;;;17.64;41.36;101555.81;4986394;28;113994;-60
2023/06/17 02:03:26;;;;;;;10.30;5.88;;;;;;;17.60;41.26;101556.97;4970561;28;123835;-60
2023/06/17 02:05:54;;;;;;;8.82;5.75;;;;;;;17.57;41.30;101551.78;4971976;28;123462;-61
2023/06/17 02:08:23;;;;;;;9.10;6.07;;;;;;;17.53;41.34;101555.63;4972309;28;113233;-61
2023/06/17 02:10:51;;;;;;;9.13;5.95;;;;;;;17.48;41.38;101555.09;4957644;28;113129;-61
2023/06/17 02:13:18;;;;;;;8.27;5.75;;;;;;;17.42;41.54;101550.09;4985313;28;124217;-60
2023/06/17 02:15:45;;;;;;;9.95;5.47;;;;;;;17.36;41.63;101542.44;4978699;28;123593;-60
2023/06/17 02:18:14;;;;;;;9.73;5.90;;;;;;;17.32;41.92;101545.31;4974804;28;114549;-60
2023/06/17 02:20:44;;;;;;;9.45;6.03;;;;;;;17.28;41.88;101546.44;4991186;28;115218;-62
2023/06/17 02:23:12;;;;;;;8.23;6.20;;;;;;;17.25;42.16;101549.34;4973271;28;124095;-62
2023/06/17 02:25:39;;;;;;;8.48;6.03;;;;;;;17.24;41.92;101547.59;4991169;28;124661;-62
2023/06/17 02:28:07;;;;;;;11.23;6.15;;;;;;;17.21;42.31;101536.22;4975583;28;113609;-62
2023/06/17 02:30:35;;;;;;;11.98;6.50;;;;;;;17.19;42.20;101539.00;4975033;28;112829;-60
2023/06/17 02:33:03;;;;;;;8.55;6.20;;;;;;;17.16;42.40;101539.19;4974992;28;122987;-60
2023/06/17 02:35:30;;;;;;;8.98;6.40;;;;;;;17.13;42.57;101540.22;4974400;28;123585;-60
2023/06/17 02:37:57;;;;;;;10.13;6.53;;;;;;;17.12;42.62;101534.97;4975332;28;113343;-63
2023/06/17 02:40:25;;;;;;;8.75;6.72;;;;;;;17.11;42.51;101535.94;4992209;28;114780;-63
2023/06/17 02:42:52;;;;;;;9.30;6.00;;;;;;;17.09;42.49;101529.81;4973966;28;122936;-63
2023/06/17 02:45:19;;;;;;;7.47;6.10;;;;;;;17.08;42.65;101537.00;4974071;28;123504;-63
2023/06/17 02:47:47;;;;;;;8.32;6.30;;;;;;;17.08;42.67;101530.75;4974659;28;113395;-63
2023/06/17 02:50:14;;;;;;;10.30;6.50;;;;;;;17.06;42.68;101524.66;4959247;28;113245;-63
2023/06/17 02:52:46;;;;;;;11.57;6.43;;;;;;;17.05;42.83;101530.97;4957255;28;123558;-63
2023/06/17 02:55:15;;;;;;;14.38;6.30;;;;;;;17.05;42.62;101533.66;4971346;28;124868;-63
2023/06/17 02:57:42;;;;;;;8.15;6.35;;;;;;;17.02;42.64;101525.78;4974345;28;113816;-63
2023/06/17 03:00:10;;;;;;;8.88;6.53;;;;;;;16.99;42.91;101520.63;4973820;28;112816;-63
2023/06/17 03:02:38;;;;;;;9.23;5.78;;;;;;;16.95;42.73;101519.09;4974183;28;122913;-63
2023/06/17 03:05:09;;;;;;;8.93;6.60;;;;;;;16.87;42.98;101517.72;4986264;28;123748;-63
2023/06/17 03:07:36;;;;;;;9.75;7.32;;;;;;;16.85;43.14;101518.78;4983528;28;114689;-63
2023/06/17 03:10:04;;;;;;;10.40;7.25;;;;;;;16.82;43.26;101519.84;4974174;28;114131;-63
2023/06/17 03:12:39;;;;;;;14.40;7.50;;;;;;;16.78;43.25;101525.44;4973406;28;123362;-63
2023/06/17 03:15:08;;;;;;;9.38;7.15;;;;;;;16.76;43.39;101524.66;4972854;28;123202;-63
2023/06/17 03:17:37;;;;;;;9.68;6.85;;;;;;;16.74;43.61;101528.31;4974696;28;113458;-62
2023/06/17 03:20:08;;;;;;;9.98;6.25;;;;;;;16.71;43.51;101522.28;5004437;28;113712;-63
2023/06/17 03:22:35;;;;;;;9.68;6.40;;;;;;;16.68;43.69;101522.44;4990648;28;124500;-64
2023/06/17 03:25:03;;;;;;;9.77;6.50;;;;;;;16.67;43.61;101526.06;4973453;28;122855;-63
2023/06/17 03:27:31;;;;;;;9.48;6.90;;;;;;;16.66;44.17;101529.72;4987106;28;113495;-63
2023/06/17 03:29:59;;;;;;;8.93;7.07;;;;;;;16.67;43.97;101526.06;4979756;28;113741;-62
2023/06/17 03:32:26;;;;;;;9.35;7.10;;;;;;;16.66;43.89;101525.22;4973752;28;124210;-62
2023/06/17 03:34:54;;;;;;;9.82;6.82;;;;;;;16.64;43.93;101520.91;4977846;28;124511;-62
2023/06/17 03:37:22;;;;;;;10.63;6.57;;;;;;;16.63;44.11;101519.19;4970795;28;113310;-62
2023/06/17 03:39:49;;;;;;;12.68;7.53;;;;;;;16.61;44.28;101516.59;4969882;28;113130;-62
2023/06/17 03:42:16;;;;;;;24.70;8.27;;;;;;;16.60;44.25;101519.38;4966686;28;123359;-61
2023/06/17 03:44:44;;;;;;;16.58;7.47;;;;;;;16.59;44.34;101525.66;4970872;28;123106;-62
2023/06/17 03:47:11;;;;;;;12.70;7.95;;;;;;;16.57;44.35;101524.91;4976000;28;113317;-62
2023/06/17 03:49:40;;;;;;;11.95;7.47;;;;;;;16.57;44.32;101524.91;4954218;28;113619;-62
2023/06/17 03:52:10;;;;;;;8.70;7.00;;;;;;;16.57;44.46;101524.91;4973903;28;123696;-62
2023/06/17 03:54:39;;;;;;;14.35;7.47;;;;;;;16.56;44.50;101524.06;4974882;28;123013;-62
2023/06/17 03:57:06;;;;;;;13.48;7.90;;;;;;;16.55;44.54;101523.16;4982949;28;114488;-62
2023/06/17 03:59:37;;;;;;;12.30;7.55;;;;;;;16.53;44.80;101514.38;4976657;28;114270;-62
2023/06/17 04:02:04;;;;;;;10.43;7.18;;;;;;;16.53;44.74;101514.38;4973608;28;124019;-62
2023/06/17 04:04:34;;;;;;;12.80;7.53;;;;;;;16.51;44.96;101516.28;4990354;28;124232;-62
2023/06/17 04:07:02;;;;;;;10.80;7.85;;;;;;;16.49;44.96;101512.84;4973743;28;113346;-62
2023/06/17 04:09:32;;;;;;;12.05;8.02;;;;;;;16.51;45.15;101516.28;4973301;28;113275;-62
2023/06/17 04:11:59;;;;;;;10.13;7.68;;;;;;;16.53;45.27;101517.06;4997874;28;124617;-62
2023/06/17 04:14:26;;;;;;;11.07;8.07;;;;;;;16.57;45.39;101519.56;4989142;28;124893;-62
2023/06/17 04:16:56;;;;;;;11.55;7.55;;;;;;;16.57;45.34;101522.22;4973603;28;113378;-62
2023/06/17 04:19:23;;;;;;;11.15;8.15;;;;;;;16.58;45.42;101516.78;4981459;28;113220;-62
2023/06/17 04:21:51;;;;;;;10.60;7.75;;;;;;;16.61;45.56;101521.09;4972571;28;123229;-62
2023/06/17 04:24:18;;;;;;;12.48;8.70;;;;;;;16.64;45.74;101520.91;4966758;28;123234;-62
2023/06/17 04:26:45;;;;;;;10.90;8.20;;;;;;;16.67;45.92;101520.72;4979211;28;113577;-63
2023/06/17 04:29:14;;;;;;;9.82;8.15;;;;;;;16.72;45.92;101523.97;4973603;28;113265;-62
2023/06/17 04:31:46;;;;;;;10.90;8.20;;;;;;;16.76;45.99;101520.16;4972727;28;123432;-62
2023/06/17 04:34:21;;;;;;;13.52;8.10;;;;;;;16.80;45.99;101527.06;4988465;28;124126;-60
2023/06/17 04:36:56;;;;;;;11.05;8.57;;;;;;;16.85;46.24;101519.66;4973675;28;113537;-60
2023/06/17 04:39:26;;;;;;;13.88;10.15;;;;;;;16.90;46.25;101511.34;4973870;28;113289;-60
2023/06/17 04:41:54;;;;;;;13.32;10.32;;;;;;;16.96;46.54;101518.16;4955948;28;123857;-60
2023/06/17 04:44:22;;;;;;;14.70;11.50;;;;;;;17.02;46.60;101517.75;4955021;28;123048;-60
2023/06/17 04:46:50;;;;;;;16.23;11.35;;;;;;;17.09;46.83;101503.91;4972146;28;113840;-60
2023/06/17 04:49:17;;;;;;;16.77;11.07;;;;;;;17.19;47.23;101506.88;4984961;28;114164;-60
2023/06/17 04:51:45;;;;;;;15.38;11.25;;;;;;;17.32;47.53;101513.16;4976442;28;125168;-60
2023/06/17 04:54:12;;;;;;;15.25;11.07;;;;;;;17.48;47.44;101501.53;4970512;28;123077;-60
2023/06/17 04:56:40;;;;;;;14.52;11.10;;;;;;;17.63;47.52;101505.88;4973316;28;114280;-61
2023/06/17 04:59:08;;;;;;;16.15;11.65;;;;;;;17.80;47.63;101517.31;4972365;28;113495;-60
2023/06/17 05:01:35;;;;;;;17.55;12.25;;;;;;;17.99;47.36;101520.56;4971110;28;123250;-60
2023/06/17 05:04:03;;;;;;;20.05;12.55;;;;;;;18.17;47.42;101514.94;4988964;28;124355;-61
2023/06/17 05:06:31;;;;;;;17.45;13.13;;;;;;;18.33;47.63;101514.75;4972812;28;113611;-61
2023/06/17 05:08:59;;;;;;;17.95;13.35;;;;;;;18.45;47.45;101525.53;4972531;28;113281;-61
2023/06/17 05:11:27;;;;;;;21.20;14.18;;;;;;;18.56;47.45;101515.91;4970124;28;122387;-61
2023/06/17 05:13:54;;;;;;;22.90;14.07;;;;;;;18.66;47.15;101517.00;4988235;28;123960;-61
2023/06/17 05:16:22;;;;;;;16.85;13.85;;;;;;;18.77;47.33;101514.44;4972357;28;113430;-61
2023/06/17 05:18:49;;;;;;;19.67;15.05;;;;;;;18.88;47.15;101515.56;4972952;28;113372;-61
2023/06/17 05:21:21;;;;;;;20.52;16.05;;;;;;;18.98;47.41;101522.00;4971711;28;123059;-61
2023/06/17 05:23:50;;;;;;;19.35;15.70;;;;;;;19.05;47.25;101524.16;4970565;28;123116;-61
2023/06/17 05:26:18;;;;;;;21.08;15.60;;;;;;;19.13;47.35;101520.91;4959081;28;113658;-61
2023/06/17 05:28:45;;;;;;;17.92;14.57;;;;;;;19.22;47.15;101525.66;4969674;28;113204;-62
2023/06/17 05:31:13;;;;;;;19.25;15.43;;;;;;;19.31;47.34;101525.94;4972358;28;123177;-62
2023/06/17 05:33:40;;;;;;;21.70;15.70;;;;;;;19.38;47.27;101527.22;4991775;28;124072;-62
2023/06/17 05:36:08;;;;;;;20.60;15.30;;;;;;;19.47;47.28;101521.22;4988649;28;115334;-62
2023/06/17 05:38:35;;;;;;;20.35;15.05;;;;;;;19.58;47.10;101526.66;4973810;28;114068;-62
2023/06/17 05:41:03;;;;;;;21.75;15.95;;;;;;;19.69;47.11;101527.72;4972188;28;124057;-63
2023/06/17 05:43:31;;;;;;;23.48;16.88;;;;;;;19.80;47.17;101520.63;4971538;28;122959;-63
2023/06/17 05:45:59;;;;;;;20.98;16.23;;;;;;;19.90;47.02;101519.97;4971493;28;114736;-63
2023/06/17 05:48:27;;;;;;;21.15;17.00;;;;;;;19.99;46.92;101520.13;4991566;28;113293;-63
2023/06/17 05:50:54;;;;;;;23.80;16.10;;;;;;;20.08;46.93;101525.78;4965162;28;124473;-63
2023/06/17 05:53:21;;;;;;;23.52;16.10;;;;;;;20.18;47.09;101518.75;4991444;28;124066;-64
2023/06/17 05:55:49;;;;;;;23.02;16.45;;;;;;;20.30;47.08;101523.19;4997012;28;113457;-64
2023/06/17 05:58:19;;;;;;;29.00;17.42;;;;;;;20.45;47.20;101520.34;4974780;28;113252;-64
2023/06/17 06:00:52;;;;;;;26.60;16.08;;;;;;;20.58;46.77;101526.50;4991186;28;123701;-65
2023/06/17 06:03:19;;;;;;;18.55;14.48;;;;;;;20.69;46.79;101523.03;4991008;28;123083;-64
2023/06/17 06:05:48;;;;;;;22.63;14.52;;;;;;;20.80;46.89;101529.28;4986868;28;114485;-64
2023/06/17 06:08:15;;;;;;;19.15;14.13;;;;;;;20.92;46.65;101524.78;4976248;28;112878;-64
2023/06/17 06:10:42;;;;;;;20.60;13.68;;;;;;;21.06;46.71;101530.91;4990450;28;124801;-64
2023/06/17 06:13:10;;;;;;;17.17;12.93;;;;;;;21.20;46.56;101523.47;4972056;28;123046;-63
2023/06/17 06:15:37;;;;;;;21.00;12.82;;;;;;;21.36;46.65;101533.00;4976652;28;113478;-63
2023/06/17 06:18:05;;;;;;;16.35;12.38;;;;;;;21.49;46.44;101539.19;4975498;28;113618;-63
2023/06/17 06:20:33;;;;;;;19.85;13.93;;;;;;;21.62;46.23;101532.78;4974912;28;123586;-63
2023/06/17 06:23:00;;;;;;;19.08;13.38;;;;;;;21.77;46.31;101534.25;4971660;28;122880;-63
2023/06/17 06:25:28;;;;;;;17.85;12.57;;;;;;;21.94;45.96;101532.84;4978014;28;114118;-63
2023/06/17 06:27:55;;;;;;;16.02;12.43;;;;;;;22.10;45.79;101527.06;4967696;28;114209;-63
2023/06/17 06:30:26;;;;;;;20.38;13.50;;;;;;;22.26;45.88;101527.50;4971895;28;123080;-63
2023/06/17 06:32:55;;;;;;;17.00;13.05;;;;;;;22.43;45.66;101533.34;4969516;28;122788;-64
2023/06/17 06:35:23;;;;;;;18.75;12.18;;;;;;;22.58;45.58;101532.03;4974718;28;113782;-64
2023/06/17 06:37:51;;;;;;;19.60;11.88;;;;;;;22.76;45.35;101536.88;4971435;28;113740;-63
2023/06/17 06:40:19;;;;;;;17.40;12.02;;;;;;;22.90;44.88;101523.03;4982673;28;124569;-63
2023/06/17 06:42:47;;;;;;;25.10;12.15;;;;;;;23.06;44.42;101531.53;4974024;28;122092;-64
2023/06/17 06:45:25;;;;;;;20.45;11.85;;;;;;;23.25;44.42;101529.94;4982739;28;114368;-64
2023/06/17 06:47:55;;;;;;;19.88;12.10;;;;;;;23.40;43.95;101527.72;4963945;28;113764;-64
2023/06/17 06:50:22;;;;;;;19.45;12.90;;;;;;;23.55;44.07;101533.63;4994593;28;124212;-63
2023/06/17 06:52:51;;;;;;;17.33;12.52;;;;;;;23.71;43.68;101532.09;4986095;28;123456;-63
2023/06/17 06:55:19;;;;;;;17.58;11.65;;;;;;;23.85;43.23;101528.19;4957921;28;113626;-63
2023/06/17 06:57:49;;;;;;;18.70;12.90;;;;;;;24.04;43.14;101537.34;4967018;28;113522;-63
2023/06/17 07:00:17;;;;;;;18.52;11.70;;;;;;;24.19;42.18;101541.34;4956280;28;123218;-63
2023/06/17 07:02:47;;;;;;;15.32;11.90;;;;;;;24.31;41.94;101533.06;4969305;28;123495;-65
2023/06/17 07:05:15;;;;;;;19.95;11.02;;;;;;;24.44;41.22;101528.22;4983113;28;113670;-64
2023/06/17 07:07:48;;;;;;;21.30;12.27;;;;;;;24.55;41.12;101536.25;4977820;28;113664;-64
2023/06/17 07:10:16;;;;;;;20.08;11.30;;;;;;;24.70;41.06;101533.09;4971804;28;123147;-64
2023/06/17 07:12:43;;;;;;;13.75;10.65;;;;;;;24.84;40.22;101535.34;4967475;28;123167;-64
2023/06/17 07:15:11;;;;;;;16.83;10.80;;;;;;;24.97;39.87;101527.75;4973053;28;114352;-64
2023/06/17 07:17:39;;;;;;;12.90;10.05;;;;;;;25.11;40.02;101530.97;4974587;28;114340;-64
2023/06/17 07:20:08;;;;;;;14.30;9.25;;;;;;;25.25;39.28;101534.09;4971327;28;123140;-64
2023/06/17 07:22:37;;;;;;;14.50;8.75;;;;;;;25.35;38.82;101523.22;4971586;28;122734;-64
2023/06/17 07:25:05;;;;;;;14.52;10.27;;;;;;;25.49;38.63;101529.19;4985423;28;114087;-64
2023/06/17 07:27:32;;;;;;;11.65;8.75;;;;;;;25.61;38.43;101527.97;4968990;28;112963;-64
2023/06/17 07:29:59;;;;;;;13.20;10.13;;;;;;;25.76;38.15;101526.44;4976512;28;123121;-64
2023/06/17 07:32:26;;;;;;;14.55;8.98;;;;;;;25.91;37.59;101528.66;4971728;28;123197;-64
2023/06/17 07:34:55;;;;;;;9.02;7.38;;;;;;;26.02;37.02;101523.03;4971119;28;113366;-64
2023/06/17 07:37:24;;;;;;;12.43;8.52;;;;;;;26.14;36.61;101519.06;4963202;28;113696;-65
2023/06/17 07:39:52;;;;;;;11.75;7.78;;;;;;;26.27;36.24;101517.84;4985296;28;123174;-65
2023/06/17 07:42:19;;;;;;;13.65;7.70;;;;;;;26.38;36.44;101525.75;4983782;28;125743;-65
2023/06/17 07:44:46;;;;;;;11.32;7.10;;;;;;;26.47;35.77;101524.81;4984740;28;113314;-65
2023/06/17 07:47:14;;;;;;;7.65;6.18;;;;;;;26.59;34.65;101522.69;4965985;28;113020;-65
2023/06/17 07:49:41;;;;;;;9.20;6.38;;;;;;;26.67;34.44;101519.22;4968917;28;123360;-65
2023/06/17 07:52:09;;;;;;;10.20;6.60;;;;;;;26.76;34.84;101518.28;4985018;28;124650;-64
2023/06/17 07:54:36;;;;;;;12.48;6.95;;;;;;;26.89;34.47;101521.41;4984471;28;114298;-64
2023/06/17 07:57:04;;;;;;;9.93;6.95;;;;;;;27.03;34.71;101519.13;4999535;28;114596;-64
2023/06/17 07:59:31;;;;;;;11.05;7.10;;;;;;;27.16;34.40;101514.09;4957587;28;123817;-64
2023/06/17 08:01:58;;;;;;;15.30;7.53;;;;;;;27.26;33.98;101520.31;5005102;28;124354;-64
2023/06/17 08:04:26;;;;;;;12.27;7.53;;;;;;;27.33;33.56;101518.66;4990023;28;115546;-64
2023/06/17 08:06:53;;;;;;;9.80;7.47;;;;;;;27.36;32.90;101521.03;4968931;28;115762;-64
2023/06/17 08:09:20;;;;;;;14.02;8.40;;;;;;;27.41;33.07;101506.09;4969635;28;123973;-64
2023/06/17 08:11:48;;;;;;;10.13;7.60;;;;;;;27.46;33.03;101514.63;4978013;28;124791;-64
2023/06/17 08:14:16;;;;;;;10.40;7.60;;;;;;;27.53;33.59;101510.22;4973151;28;114577;-63
2023/06/17 08:16:44;;;;;;;13.23;8.05;;;;;;;27.62;33.15;101503.81;4967888;28;114059;-64
2023/06/17 08:19:12;;;;;;;14.38;8.23;;;;;;;27.70;33.29;101506.53;4975719;28;124264;-64
2023/06/17 08:21:42;;;;;;;9.90;8.07;;;;;;;27.79;33.82;101506.56;4970535;28;123134;-64
2023/06/17 08:24:20;;;;;;;11.70;8.00;;;;;;;27.92;33.70;101509.69;4969598;28;113099;-64
2023/06/17 08:26:49;;;;;;;11.00;7.68;;;;;;;28.06;33.71;101505.47;4973439;28;114468;-62
2023/06/17 08:29:17;;;;;;;10.35;7.95;;;;;;;28.21;33.31;101502.94;5000566;28;124096;-62
2023/06/17 08:31:46;;;;;;;12.27;7.82;;;;;;;28.35;32.77;101499.53;4988261;28;124518;-64
2023/06/17 08:34:14;;;;;;;12.07;7.57;;;;;;;28.43;32.88;101496.81;4989914;28;114303;-64
2023/06/17 08:36:43;;;;;;;11.93;8.35;;;;;;;28.51;32.21;101498.66;4988469;28;114215;-63
2023/06/17 08:39:11;;;;;;;12.13;7.82;;;;;;;28.54;32.21;101499.22;4988656;28;124517;-64
2023/06/17 08:41:40;;;;;;;8.93;8.02;;;;;;;28.56;31.73;101500.91;4971493;28;123748;-64
2023/06/17 08:44:10;;;;;;;10.60;7.35;;;;;;;28.59;31.90;101495.97;4972967;28;112323;-64
2023/06/17 08:46:38;;;;;;;12.50;7.72;;;;;;;28.64;32.17;101503.63;4987056;28;114351;-64
2023/06/17 08:49:11;;;;;;;9.10;7.25;;;;;;;28.67;32.38;101503.28;4986460;28;124131;-64
2023/06/17 08:51:39;;;;;;;9.63;7.38;;;;;;;28.71;31.91;101489.16;4996393;28;124439;-64
2023/06/17 08:54:07;;;;;;;10.23;6.55;;;;;;;28.76;31.88;101487.78;4988405;28;115727;-64
2023/06/17 08:56:34;;;;;;;8.85;6.20;;;;;;;28.86;31.75;101485.72;4995335;28;115425;-64
2023/06/17 08:59:02;;;;;;;10.82;7.82;;;;;;;28.95;31.66;101489.25;4971792;28;123116;-64
2023/06/17 09:01:29;;;;;;;8.88;6.72;;;;;;;28.99;31.62;101486.03;4978156;28;122614;-64
2023/06/17 09:03:58;;;;;;;10.27;6.22;;;;;;;29.05;31.43;101489.94;4985402;28;114433;-64
2023/06/17 09:06:28;;;;;;;8.93;6.70;;;;;;;29.12;31.45;101490.91;4976931;28;114346;-63
2023/06/17 09:08:57;;;;;;;10.23;6.90;;;;;;;29.19;31.02;101486.47;4983691;28;125060;-64
2023/06/17 09:11:27;;;;;;;8.77;6.53;;;;;;;29.24;31.16;101488.69;4995082;28;124341;-64
2023/06/17 09:13:59;;;;;;;10.30;7.22;;;;;;;29.27;30.93;101478.28;4978554;28;114976;-64
2023/06/17 09:16:28;;;;;;;7.95;6.57;;;;;;;29.31;30.92;101482.34;4988726;28;113789;-63
2023/06/17 09:18:57;;;;;;;8.15;6.50;;;;;;;29.36;30.62;101480.97;4986175;28;123868;-63
2023/06/17 09:21:25;;;;;;;8.85;6.93;;;;;;;29.41;30.23;101484.03;4978836;28;124281;-63
2023/06/17 09:23:57;;;;;;;9.43;5.90;;;;;;;29.43;30.12;101487.44;4967917;28;114975;-63
2023/06/17 09:26:29;;;;;;;7.75;6.05;;;;;;;29.49;30.47;101486.72;4987873;28;113698;-63
2023/06/17 09:29:05;;;;;;;8.50;5.50;;;;;;;29.60;30.32;101483.56;5001055;28;124358;-63
2023/06/17 09:31:46;;;;;;;6.75;5.28;;;;;;;29.74;30.13;101502.97;4987918;28;123772;-62
2023/06/17 09:34:14;;;;;;;8.27;5.00;;;;;;;29.78;29.76;101490.66;4960960;28;114264;-62
2023/06/17 09:36:41;;;;;;;6.90;4.70;;;;;;;29.84;29.72;101484.50;4986701;28;114282;-62
2023/06/17 09:39:10;;;;;;;8.48;5.20;;;;;;;29.92;29.64;101487.19;4966277;28;124030;-62
2023/06/17 09:41:43;;;;;;;6.70;4.60;;;;;;;29.98;29.39;101489.16;4971104;28;125314;-63
2023/06/17 09:44:12;;;;;;;5.53;4.53;;;;;;;30.05;29.02;101481.94;4984496;28;115311;-63
2023/06/17 09:46:46;;;;;;;8.85;4.63;;;;;;;30.13;29.02;101488.41;4987040;28;115417;-62
2023/06/17 09:49:15;;;;;;;7.00;4.18;;;;;;;30.16;29.37;101488.00;4988946;28;124897;-63
2023/06/17 09:51:43;;;;;;;10.65;4.72;;;;;;;30.20;29.06;101494.84;4985734;28;123999;-62
2023/06/17 09:54:10;;;;;;;8.15;4.75;;;;;;;30.22;28.62;101484.56;4988984;28;114113;-63
2023/06/17 09:56:37;;;;;;;5.57;4.72;;;;;;;30.26;28.62;101488.63;4983348;28;113861;-63
2023/06/17 09:59:08;;;;;;;10.73;5.07;;;;;;;30.30;28.56;101484.50;4966824;28;123732;-62
2023/06/17 10:01:39;;;;;;;5.88;4.65;;;;;;;30.33;28.42;101489.63;4965201;28;123697;-62
2023/06/17 10:04:07;;;;;;;5.72;4.50;;;;;;;30.33;28.28;101484.16;4969055;28;115185;-63
2023/06/17 10:06:37;;;;;;;6.30;4.90;;;;;;;30.35;28.09;101482.09;4985628;28;114039;-63
2023/06/17 10:09:08;;;;;;;6.05;4.35;;;;;;;30.38;27.67;101487.19;4977943;28;124124;-63
2023/06/17 10:11:36;;;;;;;5.53;4.40;;;;;;;30.38;27.99;101481.72;4972079;28;122677;-63
2023/06/17 10:14:07;;;;;;;7.10;4.65;;;;;;;30.39;27.64;101488.88;4981625;28;114311;-63
2023/06/17 10:16:40;;;;;;;6.43;4.75;;;;;;;30.42;27.91;101482.19;4979438;28;113734;-63
2023/06/17 10:19:13;;;;;;;5.72;4.80;;;;;;;30.43;27.11;101479.28;4988013;28;124771;-64
2023/06/17 10:21:44;;;;;;;5.70;4.45;;;;;;;30.38;27.19;101481.72;4986490;28;123963;-64
2023/06/17 10:24:13;;;;;;;6.32;4.47;;;;;;;30.32;27.32;101477.00;4958420;28;113243;-63
2023/06/17 10:26:40;;;;;;;5.65;4.15;;;;;;;30.31;27.72;101478.00;4990870;28;114104;-63
2023/06/17 10:29:10;;;;;;;6.18;4.55;;;;;;;30.33;27.99;101475.97;4976578;28;123871;-63
2023/06/17 10:31:39;;;;;;;6.68;4.90;;;;;;;30.37;27.57;101469.09;4990379;28;124501;-63
2023/06/17 10:34:21;;;;;;;5.80;4.60;;;;;;;30.39;27.41;101461.56;4988304;28;115728;-62
2023/06/17 10:36:58;;;;;;;10.52;4.75;;;;;;;30.45;27.26;101455.34;4958370;28;115255;-62
2023/06/17 10:39:25;;;;;;;8.65;4.70;;;;;;;30.50;27.25;101462.13;4976923;28;124688;-62
2023/06/17 10:41:57;;;;;;;6.63;4.45;;;;;;;30.54;26.79;101452.53;4988769;28;123834;-62
2023/06/17 10:44:33;;;;;;;6.00;4.50;;;;;;;30.60;27.51;101449.06;4992413;28;114691;-62
2023/06/17 10:47:16;;;;;;;4.65;4.13;;;;;;;30.64;27.14;101442.19;4982895;28;114027;-62
2023/06/17 10:49:45;;;;;;;6.22;4.65;;;;;;;30.67;27.23;101450.00;4991507;28;124187;-62
2023/06/17 10:52:13;;;;;;;6.40;4.20;;;;;;;30.71;27.10;101448.59;4974484;28;123948;-62
2023/06/17 10:54:54;;;;;;;6.10;4.53;;;;;;;30.75;27.02;101446.34;4963376;28;114720;-62
2023/06/17 10:57:32;;;;;;;5.85;4.25;;;;;;;30.78;26.85;101444.09;4984356;28;114335;-61
2023/06/17 11:00:08;;;;;;;6.90;4.18;;;;;;;30.83;26.73;101441.59;4992617;28;124420;-62
2023/06/17 11:02:37;;;;;;;5.93;4.65;;;;;;;30.85;26.04;101439.56;4989871;28;123686;-62
2023/06/17 11:05:06;;;;;;;8.68;5.18;;;;;;;30.85;26.12;101445.03;4974854;28;114436;-62
2023/06/17 11:07:33;;;;;;;7.50;4.60;;;;;;;30.86;26.16;101441.25;4977928;28;114343;-62
2023/06/17 11:10:02;;;;;;;5.90;4.60;;;;;;;30.91;25.98;101437.13;4992027;28;124381;-62
2023/06/17 11:12:29;;;;;;;5.85;4.30;;;;;;;30.97;26.28;101433.66;4977034;28;124092;-61
2023/06/17 11:14:59;;;;;;;5.70;4.13;;;;;;;30.99;26.31;101434.31;4972865;28;114585;-61
2023/06/17 11:17:27;;;;;;;7.15;4.43;;;;;;;30.99;26.25;101434.31;4986814;28;114073;-62
2023/06/17 11:19:56;;;;;;;6.18;4.45;;;;;;;31.04;25.74;101431.81;4980607;28;123701;-62